sensor_id;sensor_type;location;lat;lon;timestamp;pressure;altitude;pressure_sealevel;temperature;humidity
5877;BME280;2964;42.144;24.730;2022-08-03T00:01:02;147553.19;;;24.15;61.07
5877;BME280;2964;42.144;24.730;2022-08-03T00:03:29;147540.50;;;24.09;61.41
5877;BME280;2964;42.144;24.730;2022-08-03T00:05:57;147569.66;;;24.21;61.30
5877;BME280;2964;42.144;24.730;2022-08-03T00:08:24;147572.22;;;24.22;61.10
5877;BME280;2964;42.144;24.730;2022-08-03T00:10:51;147544.31;;;24.11;61.74
5877;BME280;2964;42.144;24.730;2022-08-03T00:13:17;147550.63;;;24.14;61.97
5877;BME280;2964;42.144;24.730;2022-08-03T00:15:44;147548.13;;;24.13;61.76
5877;BME280;2964;42.144;24.730;2022-08-03T00:18:11;147543.00;;;24.11;62.27
5877;BME280;2964;42.144;24.730;2022-08-03T00:20:37;147596.31;;;24.32;61.12
5877;BME280;2964;42.144;24.730;2022-08-03T00:23:05;147587.44;;;24.28;61.39
5877;BME280;2964;42.144;24.730;2022-08-03T00:25:33;147570.97;;;24.22;61.58
5877;BME280;2964;42.144;24.730;2022-08-03T00:28:00;147522.72;;;24.02;62.48
5877;BME280;2964;42.144;24.730;2022-08-03T00:30:26;147444.06;;;23.70;63.18
5877;BME280;2964;42.144;24.730;2022-08-03T00:32:53;147385.72;;;23.47;65.27
5877;BME280;2964;42.144;24.730;2022-08-03T00:35:20;147329.94;;;23.24;66.69
5877;BME280;2964;42.144;24.730;2022-08-03T00:37:47;147201.84;;;22.72;69.40
5877;BME280;2964;42.144;24.730;2022-08-03T00:40:16;147195.47;;;22.70;70.04
5877;BME280;2964;42.144;24.730;2022-08-03T00:42:47;147269.00;;;23.00;68.83
5877;BME280;2964;42.144;24.730;2022-08-03T00:45:15;147313.44;;;23.18;68.15
5877;BME280;2964;42.144;24.730;2022-08-03T00:47:42;147333.75;;;23.26;67.82
5877;BME280;2964;42.144;24.730;2022-08-03T00:50:09;147336.25;;;23.27;67.87
5877;BME280;2964;42.144;24.730;2022-08-03T00:52:35;147340.06;;;23.28;67.46
5877;BME280;2964;42.144;24.730;2022-08-03T00:55:03;147337.50;;;23.27;67.57
5877;BME280;2964;42.144;24.730;2022-08-03T00:57:31;147319.78;;;23.20;68.29
5877;BME280;2964;42.144;24.730;2022-08-03T00:59:58;147328.63;;;23.24;68.15
5877;BME280;2964;42.144;24.730;2022-08-03T01:02:25;147242.41;;;22.89;70.07
5877;BME280;2964;42.144;24.730;2022-08-03T01:04:52;147266.50;;;22.99;70.05
5877;BME280;2964;42.144;24.730;2022-08-03T01:07:25;147282.97;;;23.05;69.75
5877;BME280;2964;42.144;24.730;2022-08-03T01:09:59;147186.59;;;22.66;71.07
5877;BME280;2964;42.144;24.730;2022-08-03T01:12:34;147114.38;;;22.37;72.90
5877;BME280;2964;42.144;24.730;2022-08-03T01:15:07;147133.41;;;22.45;73.02
5877;BME280;2964;42.144;24.730;2022-08-03T01:17:38;147206.91;;;22.74;71.56
5877;BME280;2964;42.144;24.730;2022-08-03T01:20:07;147291.88;;;23.09;69.97
5877;BME280;2964;42.144;24.730;2022-08-03T01:25:50;147274.06;;;23.02;70.00
5877;BME280;2964;42.144;24.730;2022-08-03T01:28:49;147252.53;;;22.93;70.13
5877;BME280;2964;42.144;24.730;2022-08-03T01:31:22;147167.59;;;22.59;71.76
5877;BME280;2964;42.144;24.730;2022-08-03T01:33:54;147099.19;;;22.31;73.09
5877;BME280;2964;42.144;24.730;2022-08-03T01:36:27;147109.31;;;22.35;72.98
5877;BME280;2964;42.144;24.730;2022-08-03T01:39:03;147122.00;;;22.40;72.73
5877;BME280;2964;42.144;24.730;2022-08-03T01:41:37;147097.94;;;22.30;72.65
5877;BME280;2964;42.144;24.730;2022-08-03T01:44:08;147170.16;;;22.60;71.74
5877;BME280;2964;42.144;24.730;2022-08-03T01:46:37;147179.03;;;22.63;71.60
5877;BME280;2964;42.144;24.730;2022-08-03T01:49:06;147210.72;;;22.76;70.90
5877;BME280;2964;42.144;24.730;2022-08-03T01:51:36;147195.47;;;22.70;71.05
5877;BME280;2964;42.144;24.730;2022-08-03T01:54:04;147120.72;;;22.40;72.80
5877;BME280;2964;42.144;24.730;2022-08-03T01:56:33;147057.31;;;22.14;74.19
5877;BME280;2964;42.144;24.730;2022-08-03T01:59:01;147090.31;;;22.27;73.84
5877;BME280;2964;42.144;24.730;2022-08-03T02:01:30;147089.06;;;22.27;74.02
5877;BME280;2964;42.144;24.730;2022-08-03T02:03:59;147086.50;;;22.26;74.41
5877;BME280;2964;42.144;24.730;2022-08-03T02:06:26;147143.53;;;22.49;73.19
5877;BME280;2964;42.144;24.730;2022-08-03T02:08:55;147200.56;;;22.72;71.87
5877;BME280;2964;42.144;24.730;2022-08-03T02:11:22;147180.28;;;22.64;72.26
5877;BME280;2964;42.144;24.730;2022-08-03T02:13:50;147177.75;;;22.63;72.22
5877;BME280;2964;42.144;24.730;2022-08-03T02:16:18;147170.16;;;22.60;71.95
5877;BME280;2964;42.144;24.730;2022-08-03T02:18:46;147124.53;;;22.41;72.76
5877;BME280;2964;42.144;24.730;2022-08-03T02:21:15;147106.78;;;22.34;73.09
5877;BME280;2964;42.144;24.730;2022-08-03T02:23:42;147139.72;;;22.47;72.01
5877;BME280;2964;42.144;24.730;2022-08-03T02:26:13;147149.88;;;22.51;71.46
5877;BME280;2964;42.144;24.730;2022-08-03T02:28:44;147094.13;;;22.29;72.59
5877;BME280;2964;42.144;24.730;2022-08-03T02:31:16;147122.00;;;22.40;72.25
5877;BME280;2964;42.144;24.730;2022-08-03T02:33:48;147134.66;;;22.45;71.88
5877;BME280;2964;42.144;24.730;2022-08-03T02:36:19;147139.72;;;22.47;71.16
5877;BME280;2964;42.144;24.730;2022-08-03T02:38:51;147185.34;;;22.66;69.73
5877;BME280;2964;42.144;24.730;2022-08-03T02:41:23;147182.81;;;22.65;68.55
5877;BME280;2964;42.144;24.730;2022-08-03T02:43:53;147158.75;;;22.55;67.96
5877;BME280;2964;42.144;24.730;2022-08-03T02:46:24;147100.44;;;22.31;67.99
5877;BME280;2964;42.144;24.730;2022-08-03T02:48:52;147045.91;;;22.09;68.94
5877;BME280;2964;42.144;24.730;2022-08-03T02:51:23;147043.41;;;22.08;68.55
5877;BME280;2964;42.144;24.730;2022-08-03T02:53:50;147082.66;;;22.24;68.29
5877;BME280;2964;42.144;24.730;2022-08-03T02:56:20;147076.31;;;22.22;68.70
5877;BME280;2964;42.144;24.730;2022-08-03T02:58:48;147049.72;;;22.11;69.07
5877;BME280;2964;42.144;24.730;2022-08-03T03:01:18;147071.25;;;22.20;68.34
5877;BME280;2964;42.144;24.730;2022-08-03T03:03:46;147051.00;;;22.11;68.58
5877;BME280;2964;42.144;24.730;2022-08-03T03:06:16;147085.19;;;22.25;68.05
5877;BME280;2964;42.144;24.730;2022-08-03T03:08:44;147104.25;;;22.33;67.85
5877;BME280;2964;42.144;24.730;2022-08-03T03:11:13;147094.13;;;22.29;68.16
5877;BME280;2964;42.144;24.730;2022-08-03T03:13:41;147028.16;;;22.02;69.25
5877;BME280;2964;42.144;24.730;2022-08-03T03:16:09;147020.59;;;21.99;68.85
5877;BME280;2964;42.144;24.730;2022-08-03T03:18:38;147007.91;;;21.94;68.90
5877;BME280;2964;42.144;24.730;2022-08-03T03:21:07;146982.56;;;21.84;69.45
5877;BME280;2964;42.144;24.730;2022-08-03T03:23:36;147063.66;;;22.16;68.71
5877;BME280;2964;42.144;24.730;2022-08-03T03:26:05;147045.91;;;22.09;68.18
5877;BME280;2964;42.144;24.730;2022-08-03T03:28:33;146975.00;;;21.81;69.02
5877;BME280;2964;42.144;24.730;2022-08-03T03:31:03;146973.75;;;21.80;69.27
5877;BME280;2964;42.144;24.730;2022-08-03T03:33:29;147000.31;;;21.91;68.84
5877;BME280;2964;42.144;24.730;2022-08-03T03:35:57;146962.31;;;21.75;69.08
5877;BME280;2964;42.144;24.730;2022-08-03T03:38:24;146972.44;;;21.79;69.30
5877;BME280;2964;42.144;24.730;2022-08-03T03:40:51;147047.22;;;22.10;68.48
5877;BME280;2964;42.144;24.730;2022-08-03T03:43:19;147054.78;;;22.13;67.39
5877;BME280;2964;42.144;24.730;2022-08-03T03:45:48;147114.38;;;22.37;67.10
5877;BME280;2964;42.144;24.730;2022-08-03T03:48:17;147076.31;;;22.22;67.91
5877;BME280;2964;42.144;24.730;2022-08-03T03:50:44;146995.25;;;21.89;68.76
5877;BME280;2964;42.144;24.730;2022-08-03T03:53:12;146919.28;;;21.58;69.27
5877;BME280;2964;42.144;24.730;2022-08-03T03:55:40;146987.66;;;21.86;69.43
5877;BME280;2964;42.144;24.730;2022-08-03T03:58:07;146963.56;;;21.76;70.68
5877;BME280;2964;42.144;24.730;2022-08-03T04:00:35;146993.97;;;21.88;70.69
5877;BME280;2964;42.144;24.730;2022-08-03T04:03:02;147033.28;;;22.04;69.67
5877;BME280;2964;42.144;24.730;2022-08-03T04:05:29;147016.78;;;21.97;69.26
5877;BME280;2964;42.144;24.730;2022-08-03T04:08:14;147068.72;;;22.18;69.33
5877;BME280;2964;42.144;24.730;2022-08-03T04:11:13;147078.88;;;22.23;68.18
5877;BME280;2964;42.144;24.730;2022-08-03T04:13:45;147101.72;;;22.32;68.54
5877;BME280;2964;42.144;24.730;2022-08-03T04:16:15;147011.72;;;21.95;69.06
5877;BME280;2964;42.144;24.730;2022-08-03T04:18:46;147106.78;;;22.34;67.33
5877;BME280;2964;42.144;24.730;2022-08-03T04:21:17;147127.06;;;22.42;67.40
5877;BME280;2964;42.144;24.730;2022-08-03T04:23:47;147020.59;;;21.99;69.18
5877;BME280;2964;42.144;24.730;2022-08-03T04:26:18;146942.06;;;21.67;71.04
5877;BME280;2964;42.144;24.730;2022-08-03T04:28:46;146967.38;;;21.77;70.73
5877;BME280;2964;42.144;24.730;2022-08-03T04:31:16;147063.66;;;22.16;69.86
5877;BME280;2964;42.144;24.730;2022-08-03T04:33:44;146942.06;;;21.67;70.89
5877;BME280;2964;42.144;24.730;2022-08-03T04:36:15;147015.53;;;21.97;70.43
5877;BME280;2964;42.144;24.730;2022-08-03T04:38:55;146988.91;;;21.86;70.09
5877;BME280;2964;42.144;24.730;2022-08-03T04:41:26;147006.66;;;21.93;69.94
5877;BME280;2964;42.144;24.730;2022-08-03T04:43:54;146987.66;;;21.86;69.74
5877;BME280;2964;42.144;24.730;2022-08-03T04:46:25;146968.63;;;21.78;70.54
5877;BME280;2964;42.144;24.730;2022-08-03T04:48:54;147004.09;;;21.92;69.60
5877;BME280;2964;42.144;24.730;2022-08-03T04:51:21;146947.13;;;21.69;70.89
5877;BME280;2964;42.144;24.730;2022-08-03T04:53:48;146948.38;;;21.70;71.79
5877;BME280;2964;42.144;24.730;2022-08-03T04:56:14;147002.84;;;21.92;70.57
5877;BME280;2964;42.144;24.730;2022-08-03T04:58:41;146920.53;;;21.58;71.53
5877;BME280;2964;42.144;24.730;2022-08-03T05:01:08;146977.50;;;21.82;70.70
5877;BME280;2964;42.144;24.730;2022-08-03T05:03:37;146976.25;;;21.81;70.13
5877;BME280;2964;42.144;24.730;2022-08-03T05:06:03;146969.94;;;21.78;70.92
5877;BME280;2964;42.144;24.730;2022-08-03T05:08:30;147012.97;;;21.96;70.04
5877;BME280;2964;42.144;24.730;2022-08-03T05:10:57;147044.66;;;22.09;69.82
5877;BME280;2964;42.144;24.730;2022-08-03T05:13:23;147005.34;;;21.93;70.13
5877;BME280;2964;42.144;24.730;2022-08-03T05:15:50;147115.66;;;22.38;69.29
5877;BME280;2964;42.144;24.730;2022-08-03T05:18:17;147172.66;;;22.61;68.40
5877;BME280;2964;42.144;24.730;2022-08-03T05:20:45;147198.03;;;22.71;67.54
5877;BME280;2964;42.144;24.730;2022-08-03T05:23:11;147181.53;;;22.64;68.29
5877;BME280;2964;42.144;24.730;2022-08-03T05:25:38;147215.78;;;22.78;67.18
5877;BME280;2964;42.144;24.730;2022-08-03T05:28:05;147234.78;;;22.86;68.00
5877;BME280;2964;42.144;24.730;2022-08-03T05:30:32;147299.50;;;23.12;66.84
5877;BME280;2964;42.144;24.730;2022-08-03T05:32:58;147154.94;;;22.53;67.17
5877;BME280;2964;42.144;24.730;2022-08-03T05:35:25;147190.41;;;22.68;67.44
5877;BME280;2964;42.144;24.730;2022-08-03T05:37:55;147291.88;;;23.09;66.23
5877;BME280;2964;42.144;24.730;2022-08-03T05:40:21;147342.63;;;23.29;65.54
5877;BME280;2964;42.144;24.730;2022-08-03T05:42:49;147352.75;;;23.34;65.69
5877;BME280;2964;42.144;24.730;2022-08-03T05:45:15;147383.16;;;23.46;65.54
5877;BME280;2964;42.144;24.730;2022-08-03T05:47:43;147411.09;;;23.57;64.79
5877;BME280;2964;42.144;24.730;2022-08-03T05:50:10;147479.63;;;23.85;63.30
5877;BME280;2964;42.144;24.730;2022-08-03T05:52:37;147667.44;;;24.61;61.14
5877;BME280;2964;42.144;24.730;2022-08-03T05:55:07;147653.47;;;24.55;60.42
5877;BME280;2964;42.144;24.730;2022-08-03T05:57:34;147708.06;;;24.77;60.40
5877;BME280;2964;42.144;24.730;2022-08-03T06:00:02;147579.84;;;24.25;61.39
5877;BME280;2964;42.144;24.730;2022-08-03T06:02:30;147644.53;;;24.52;61.00
5877;BME280;2964;42.144;24.730;2022-08-03T06:04:57;147671.25;;;24.62;60.41
5877;BME280;2964;42.144;24.730;2022-08-03T06:07:23;147812.09;;;25.19;58.50
5877;BME280;2964;42.144;24.730;2022-08-03T06:09:50;147635.66;;;24.48;59.55
5877;BME280;2964;42.144;24.730;2022-08-03T06:12:19;147676.31;;;24.64;61.27
5877;BME280;2964;42.144;24.730;2022-08-03T06:14:45;147596.31;;;24.32;61.17
5877;BME280;2964;42.144;24.730;2022-08-03T06:17:12;147685.22;;;24.68;60.93
5877;BME280;2964;42.144;24.730;2022-08-03T06:19:39;147659.81;;;24.58;60.89
5877;BME280;2964;42.144;24.730;2022-08-03T06:22:06;147675.03;;;24.64;60.83
5877;BME280;2964;42.144;24.730;2022-08-03T06:24:32;147753.75;;;24.96;59.31
5877;BME280;2964;42.144;24.730;2022-08-03T06:26:59;147801.97;;;25.15;59.23
5877;BME280;2964;42.144;24.730;2022-08-03T06:29:27;147690.28;;;24.70;60.38
5877;BME280;2964;42.144;24.730;2022-08-03T06:31:54;147654.75;;;24.56;60.07
5877;BME280;2964;42.144;24.730;2022-08-03T06:34:20;147643.25;;;24.51;60.73
5877;BME280;2964;42.144;24.730;2022-08-03T06:36:47;147831.25;;;25.27;59.03
5877;BME280;2964;42.144;24.730;2022-08-03T06:39:15;147849.00;;;25.34;58.96
5877;BME280;2964;42.144;24.730;2022-08-03T06:41:42;147960.75;;;25.79;55.60
5877;BME280;2964;42.144;24.730;2022-08-03T06:44:09;147746.13;;;24.93;57.37
5877;BME280;2964;42.144;24.730;2022-08-03T06:46:37;147885.84;;;25.49;57.21
5877;BME280;2964;42.144;24.730;2022-08-03T06:49:05;147767.72;;;25.01;57.18
5877;BME280;2964;42.144;24.730;2022-08-03T06:51:32;147864.22;;;25.40;57.75
5877;BME280;2964;42.144;24.730;2022-08-03T06:53:58;147873.13;;;25.44;56.11
5877;BME280;2964;42.144;24.730;2022-08-03T06:56:25;147912.47;;;25.60;56.78
5877;BME280;2964;42.144;24.730;2022-08-03T06:58:52;148033.19;;;26.09;56.10
5877;BME280;2964;42.144;24.730;2022-08-03T07:01:19;148119.59;;;26.44;54.69
5877;BME280;2964;42.144;24.730;2022-08-03T07:03:47;147984.84;;;25.89;55.34
5877;BME280;2964;42.144;24.730;2022-08-03T07:06:13;148101.78;;;26.36;54.94
5877;BME280;2964;42.144;24.730;2022-08-03T07:08:40;148447.63;;;27.76;51.38
5877;BME280;2964;42.144;24.730;2022-08-03T07:11:07;149076.47;;;30.30;45.24
5877;BME280;2964;42.144;24.730;2022-08-03T07:13:33;149520.13;;;32.08;39.35
5877;BME280;2964;42.144;24.730;2022-08-03T07:16:00;149632.31;;;32.54;38.11
5877;BME280;2964;42.144;24.730;2022-08-03T07:18:27;149662.97;;;32.66;37.03
5877;BME280;2964;42.144;24.730;2022-08-03T07:20:55;149634.88;;;32.55;38.04
5877;BME280;2964;42.144;24.730;2022-08-03T07:23:21;149599.16;;;32.40;39.17
5877;BME280;2964;42.144;24.730;2022-08-03T07:25:48;149925.91;;;33.72;36.74
5877;BME280;2964;42.144;24.730;2022-08-03T07:28:15;150265.56;;;35.08;33.58
5877;BME280;2964;42.144;24.730;2022-08-03T07:30:41;149683.41;;;32.74;37.12
5877;BME280;2964;42.144;24.730;2022-08-03T07:33:08;150086.78;;;34.36;36.12
5877;BME280;2964;42.144;24.730;2022-08-03T07:35:35;150657.94;;;36.66;32.67
5877;BME280;2964;42.144;24.730;2022-08-03T07:38:03;150509.66;;;36.06;32.38
5877;BME280;2964;42.144;24.730;2022-08-03T07:40:30;150787.13;;;37.18;30.90
5877;BME280;2964;42.144;24.730;2022-08-03T07:42:56;150963.66;;;37.89;30.19
5877;BME280;2964;42.144;24.730;2022-08-03T07:45:23;151171.00;;;38.72;28.26
5877;BME280;2964;42.144;24.730;2022-08-03T07:47:51;150724.41;;;36.93;29.96
5877;BME280;2964;42.144;24.730;2022-08-03T07:50:17;150168.47;;;34.69;33.16
5877;BME280;2964;42.144;24.730;2022-08-03T07:52:44;150076.53;;;34.32;34.11
5877;BME280;2964;42.144;24.730;2022-08-03T07:55:16;149826.31;;;33.32;36.21
5877;BME280;2964;42.144;24.730;2022-08-03T07:57:43;149915.66;;;33.68;36.24
5877;BME280;2964;42.144;24.730;2022-08-03T08:00:13;150142.94;;;34.59;35.19
5877;BME280;2964;42.144;24.730;2022-08-03T08:02:41;150160.81;;;34.66;35.50
5877;BME280;2964;42.144;24.730;2022-08-03T08:05:08;150077.84;;;34.33;37.14
5877;BME280;2964;42.144;24.730;2022-08-03T08:07:36;150264.25;;;35.08;34.26
5877;BME280;2964;42.144;24.730;2022-08-03T08:10:03;150171.06;;;34.70;33.83
5877;BME280;2964;42.144;24.730;2022-08-03T08:12:31;150123.78;;;34.51;34.86
5877;BME280;2964;42.144;24.730;2022-08-03T08:14:58;150121.22;;;34.50;34.77
5877;BME280;2964;42.144;24.730;2022-08-03T08:17:25;149780.38;;;33.13;37.68
5877;BME280;2964;42.144;24.730;2022-08-03T08:19:52;149849.28;;;33.41;36.23
5877;BME280;2964;42.144;24.730;2022-08-03T08:22:19;150048.44;;;34.21;36.74
5877;BME280;2964;42.144;24.730;2022-08-03T08:24:46;150288.56;;;35.17;35.02
5877;BME280;2964;42.144;24.730;2022-08-03T08:27:13;150007.53;;;34.04;36.04
5877;BME280;2964;42.144;24.730;2022-08-03T08:29:41;150099.50;;;34.41;35.69
5877;BME280;2964;42.144;24.730;2022-08-03T08:32:09;150026.69;;;34.12;35.45
5877;BME280;2964;42.144;24.730;2022-08-03T08:34:38;149882.44;;;33.54;36.92
5877;BME280;2964;42.144;24.730;2022-08-03T08:37:05;149918.22;;;33.69;36.29
5877;BME280;2964;42.144;24.730;2022-08-03T08:39:32;149766.31;;;33.07;38.97
5877;BME280;2964;42.144;24.730;2022-08-03T08:41:59;150122.47;;;34.51;36.76
5877;BME280;2964;42.144;24.730;2022-08-03T08:44:25;150237.44;;;34.97;36.51
5877;BME280;2964;42.144;24.730;2022-08-03T08:46:56;150403.56;;;35.64;33.09
5877;BME280;2964;42.144;24.730;2022-08-03T08:49:25;149941.19;;;33.78;35.88
5877;BME280;2964;42.144;24.730;2022-08-03T08:51:53;149920.75;;;33.70;36.63
5877;BME280;2964;42.144;24.730;2022-08-03T08:54:22;150096.97;;;34.40;36.33
5877;BME280;2964;42.144;24.730;2022-08-03T08:56:50;150026.69;;;34.12;36.23
5877;BME280;2964;42.144;24.730;2022-08-03T08:59:21;149943.72;;;33.79;37.67
5877;BME280;2964;42.144;24.730;2022-08-03T09:01:49;150053.53;;;34.23;35.20
5877;BME280;2964;42.144;24.730;2022-08-03T09:04:17;149923.34;;;33.71;37.17
5877;BME280;2964;42.144;24.730;2022-08-03T09:06:44;150168.47;;;34.69;35.25
5877;BME280;2964;42.144;24.730;2022-08-03T09:09:11;150361.38;;;35.47;33.68
5877;BME280;2964;42.144;24.730;2022-08-03T09:11:41;150383.09;;;35.55;34.17
5877;BME280;2964;42.144;24.730;2022-08-03T09:14:08;150571.00;;;36.31;32.62
5877;BME280;2964;42.144;24.730;2022-08-03T09:16:34;150363.94;;;35.48;33.37
5877;BME280;2964;42.144;24.730;2022-08-03T09:19:11;150383.09;;;35.55;33.92
5877;BME280;2964;42.144;24.730;2022-08-03T09:21:39;150317.97;;;35.29;33.56
5877;BME280;2964;42.144;24.730;2022-08-03T09:24:06;150498.13;;;36.02;32.52
5877;BME280;2964;42.144;24.730;2022-08-03T09:26:34;150620.88;;;36.51;31.03
5877;BME280;2964;42.144;24.730;2022-08-03T09:29:04;150526.22;;;36.13;31.66
5877;BME280;2964;42.144;24.730;2022-08-03T09:31:32;150682.25;;;36.76;31.44
5877;BME280;2964;42.144;24.730;2022-08-03T09:34:01;150573.59;;;36.32;30.27
5877;BME280;2964;42.144;24.730;2022-08-03T09:36:34;150461.06;;;35.87;32.59
5877;BME280;2964;42.144;24.730;2022-08-03T09:39:04;150329.44;;;35.34;32.22
5877;BME280;2964;42.144;24.730;2022-08-03T09:41:31;150549.28;;;36.22;31.36
5877;BME280;2964;42.144;24.730;2022-08-03T09:43:58;150698.88;;;36.82;30.99
5877;BME280;2964;42.144;24.730;2022-08-03T09:46:24;150554.38;;;36.24;29.82
5877;BME280;2964;42.144;24.730;2022-08-03T09:49:08;150510.91;;;36.07;31.79
5877;BME280;2964;42.144;24.730;2022-08-03T09:51:34;150608.06;;;36.46;31.19
5877;BME280;2964;42.144;24.730;2022-08-03T09:54:03;150164.66;;;34.68;34.11
5877;BME280;2964;42.144;24.730;2022-08-03T09:56:38;149701.28;;;32.81;36.13
5877;BME280;2964;42.144;24.730;2022-08-03T09:59:05;149850.53;;;33.41;36.60
5877;BME280;2964;42.144;24.730;2022-08-03T10:01:32;149989.66;;;33.97;36.07
5877;BME280;2964;42.144;24.730;2022-08-03T10:03:59;149892.63;;;33.58;35.61
5877;BME280;2964;42.144;24.730;2022-08-03T10:06:26;149699.97;;;32.81;36.99
5877;BME280;2964;42.144;24.730;2022-08-03T10:09:06;149590.22;;;32.37;37.51
5877;BME280;2964;42.144;24.730;2022-08-03T10:11:33;149396.41;;;31.59;38.92
5877;BME280;2964;42.144;24.730;2022-08-03T10:14:02;149265.09;;;31.06;41.47
5877;BME280;2964;42.144;24.730;2022-08-03T10:16:32;149419.38;;;31.68;41.15
5877;BME280;2964;42.144;24.730;2022-08-03T10:19:00;149475.44;;;31.90;40.58
5877;BME280;2964;42.144;24.730;2022-08-03T10:21:28;149387.50;;;31.55;41.21
5877;BME280;2964;42.144;24.730;2022-08-03T10:23:57;149321.19;;;31.28;41.15
5877;BME280;2964;42.144;24.730;2022-08-03T10:26:26;149346.66;;;31.39;41.29
5877;BME280;2964;42.144;24.730;2022-08-03T10:28:55;149392.59;;;31.57;41.18
5877;BME280;2964;42.144;24.730;2022-08-03T10:31:25;149410.44;;;31.64;41.46
5877;BME280;2964;42.144;24.730;2022-08-03T10:33:58;149200.06;;;30.79;41.96
5877;BME280;2964;42.144;24.730;2022-08-03T10:36:29;149219.19;;;30.87;43.01
5877;BME280;2964;42.144;24.730;2022-08-03T10:38:57;149209.00;;;30.83;42.47
5877;BME280;2964;42.144;24.730;2022-08-03T10:41:31;149268.94;;;31.07;42.57
5877;BME280;2964;42.144;24.730;2022-08-03T10:44:02;149369.66;;;31.48;41.84
5877;BME280;2964;42.144;24.730;2022-08-03T10:46:29;149289.34;;;31.15;41.80
5877;BME280;2964;42.144;24.730;2022-08-03T10:48:58;149395.16;;;31.58;41.99
5877;BME280;2964;42.144;24.730;2022-08-03T10:51:26;149365.78;;;31.46;42.33
5877;BME280;2964;42.144;24.730;2022-08-03T10:53:56;149337.72;;;31.35;41.90
5877;BME280;2964;42.144;24.730;2022-08-03T10:56:40;149281.69;;;31.12;41.86
5877;BME280;2964;42.144;24.730;2022-08-03T10:59:57;149328.81;;;31.31;42.73
5877;BME280;2964;42.144;24.730;2022-08-03T11:03:00;149280.41;;;31.12;41.76
5877;BME280;2964;42.144;24.730;2022-08-03T11:05:28;149285.50;;;31.14;42.44
5877;BME280;2964;42.144;24.730;2022-08-03T11:08:17;149300.78;;;31.20;41.88
5877;BME280;2964;42.144;24.730;2022-08-03T11:10:44;149294.44;;;31.17;42.24
5877;BME280;2964;42.144;24.730;2022-08-03T11:13:14;149260.00;;;31.04;42.91
5877;BME280;2964;42.144;24.730;2022-08-03T11:15:44;149324.97;;;31.30;42.59
5877;BME280;2964;42.144;24.730;2022-08-03T11:18:14;149233.25;;;30.93;42.79
5877;BME280;2964;42.144;24.730;2022-08-03T11:20:48;149326.28;;;31.30;41.92
5877;BME280;2964;42.144;24.730;2022-08-03T11:23:17;149355.59;;;31.42;42.61
5877;BME280;2964;42.144;24.730;2022-08-03T11:26:15;149377.31;;;31.51;41.98
5877;BME280;2964;42.144;24.730;2022-08-03T11:28:45;149303.34;;;31.21;42.59
5877;BME280;2964;42.144;24.730;2022-08-03T11:34:18;149186.06;;;30.74;42.61
5877;BME280;2964;42.144;24.730;2022-08-03T11:37:20;149238.34;;;30.95;42.66
5877;BME280;2964;42.144;24.730;2022-08-03T11:39:52;149291.84;;;31.16;41.09
5877;BME280;2964;42.144;24.730;2022-08-03T11:42:38;149344.13;;;31.38;41.75
5877;BME280;2964;42.144;24.730;2022-08-03T11:45:08;149447.41;;;31.79;41.25
5877;BME280;2964;42.144;24.730;2022-08-03T11:47:38;149541.81;;;32.17;40.47
5877;BME280;2964;42.144;24.730;2022-08-03T11:50:07;149495.88;;;31.99;40.53
5877;BME280;2964;42.144;24.730;2022-08-03T11:52:37;149520.13;;;32.08;39.49
5877;BME280;2964;42.144;24.730;2022-08-03T11:55:09;149457.59;;;31.83;38.91
5877;BME280;2964;42.144;24.730;2022-08-03T11:57:36;149439.72;;;31.76;39.10
5877;BME280;2964;42.144;24.730;2022-08-03T12:00:22;149397.69;;;31.59;40.13
5877;BME280;2964;42.144;24.730;2022-08-03T12:03:02;149460.16;;;31.84;38.24
5877;BME280;2964;42.144;24.730;2022-08-03T12:05:37;149399.00;;;31.60;37.68
5877;BME280;2964;42.144;24.730;2022-08-03T12:08:05;149434.63;;;31.74;38.46
5877;BME280;2964;42.144;24.730;2022-08-03T12:10:32;149497.13;;;31.99;39.43
5877;BME280;2964;42.144;24.730;2022-08-03T12:13:02;149492.03;;;31.97;37.63
5877;BME280;2964;42.144;24.730;2022-08-03T12:15:34;149446.13;;;31.79;37.10
5877;BME280;2964;42.144;24.730;2022-08-03T12:18:09;149290.59;;;31.16;38.40
5877;BME280;2964;42.144;24.730;2022-08-03T12:20:38;149263.84;;;31.05;39.99
5877;BME280;2964;42.144;24.730;2022-08-03T12:23:05;149368.38;;;31.47;41.98
5877;BME280;2964;42.144;24.730;2022-08-03T12:25:33;149402.78;;;31.61;39.09
5877;BME280;2964;42.144;24.730;2022-08-03T12:28:08;149405.34;;;31.62;38.20
5877;BME280;2964;42.144;24.730;2022-08-03T12:30:38;149350.50;;;31.40;37.57
5877;BME280;2964;42.144;24.730;2022-08-03T12:33:20;149390.06;;;31.56;38.01
5877;BME280;2964;42.144;24.730;2022-08-03T12:35:48;149433.38;;;31.73;37.73
5877;BME280;2964;42.144;24.730;2022-08-03T12:38:20;149458.91;;;31.84;38.78
5877;BME280;2964;42.144;24.730;2022-08-03T12:40:56;149494.56;;;31.98;38.34
5877;BME280;2964;42.144;24.730;2022-08-03T12:43:23;149576.22;;;32.31;37.08
5877;BME280;2964;42.144;24.730;2022-08-03T12:46:05;149578.78;;;32.32;38.10
5877;BME280;2964;42.144;24.730;2022-08-03T12:48:32;149471.59;;;31.89;38.23
5877;BME280;2964;42.144;24.730;2022-08-03T12:51:07;149517.53;;;32.07;38.08
5877;BME280;2964;42.144;24.730;2022-08-03T12:53:33;149540.50;;;32.17;38.63
5877;BME280;2964;42.144;24.730;2022-08-03T12:56:01;149617.03;;;32.47;37.80
5877;BME280;2964;42.144;24.730;2022-08-03T12:58:29;149446.13;;;31.79;36.69
5877;BME280;2964;42.144;24.730;2022-08-03T13:00:59;149588.97;;;32.36;36.80
5877;BME280;2964;42.144;24.730;2022-08-03T13:03:26;149669.38;;;32.68;36.63
5877;BME280;2964;42.144;24.730;2022-08-03T13:05:53;149567.28;;;32.27;34.45
5877;BME280;2964;42.144;24.730;2022-08-03T13:08:21;149443.56;;;31.78;35.98
5877;BME280;2964;42.144;24.730;2022-08-03T13:10:49;149428.28;;;31.71;35.11
5877;BME280;2964;42.144;24.730;2022-08-03T13:13:16;149407.91;;;31.63;35.77
5877;BME280;2964;42.144;24.730;2022-08-03T13:15:44;149344.13;;;31.38;36.18
5877;BME280;2964;42.144;24.730;2022-08-03T13:18:12;149392.59;;;31.57;36.16